Terminal Aerodrome Forecast
Issued by NWS

Home | Current Version | Previous Version | Text Only | Print | Product List | Glossary On
Versions: 1 2 3 4 5 6 7 8 9 10 11 12 13 14 15 16
960
FTUS43 KFGF 262339
TAFTVF
TAF
KTVF 262339Z 2700/2724 26009KT P6SM SCT050
     FM270200 26005KT P6SM SCT200
     FM271000 10004KT P6SM SCT150
     FM271800 14005KT P6SM VCSH BKN080
     FM272300 08006KT P6SM VCSH OVC050
      AMD LTD TO CLD VIS AND WIND=

USA.gov is the U.S. government's official web portal to all federal, state and local government web resources and services.